Weather at La Fe de Cojedes Airport

Public forecast

Using degrees Celsius for public forecast. Weather courtesy of forecast.io.

Closest aviation weather report (METAR) to La Fe de Cojedes Airport

Closest report is San Juan de Los Morros Airport, 36.3 nm (67.2 km) NE. Retrieved 2022/01/27 08:03 UTC (28 minutes ago):

SVJM 270803Z AUTO 06002KT NCD 18/14 Q1011

Closest aviation forecast (TAF) to La Fe de Cojedes Airport

Forecast is more than 12 hours old.

Closest forecast is Arturo Michelena International Airport, 40.6 nm (75.1 km) N. Retrieved 2022/01/23 18:51 UTC (4 days ago):

TAF TAF SVVA 231600Z 2318/2418 12003KT 9999 SCT016 TX31/2318Z TN21/2408Z TEMPO 2322/2402 07002KT 9999 SCT016 TEMPO 2406/2410 09003KT SCT016